Time;durP1;ratioP1;P1;durP2;ratioP2;P2;SDS_P1;SDS_P2;PMS_P1;PMS_P2;Temp;Humidity;BMP_temperature;BMP_pressure;BME280_temperature;BME280_humidity;BME280_pressure;Samples;Min_cycle;Max_cycle;Signal;HPM_P1;HPM_P2
2021/08/04 00:00:46;;;;;;;3.30;1.57;;;;;;;13.86;100.00;95717.56;5053060;28;20444;-76
2021/08/04 00:03:12;;;;;;;1.60;1.50;;;;;;;13.89;100.00;95711.28;5053018;28;20420;-75
2021/08/04 00:05:37;;;;;;;4.57;1.50;;;;;;;13.97;100.00;95704.53;5052730;28;20937;-76
2021/08/04 00:08:03;;;;;;;2.30;1.50;;;;;;;13.99;100.00;95707.03;5051756;28;20433;-76
2021/08/04 00:10:29;;;;;;;1.58;1.42;;;;;;;14.06;100.00;95703.00;5053007;28;20421;-76
2021/08/04 00:12:56;;;;;;;2.80;1.70;;;;;;;14.02;100.00;95709.41;5052691;28;20482;-76
2021/08/04 00:15:21;;;;;;;4.10;1.65;;;;;;;14.03;100.00;95701.47;5052267;28;20428;-76
2021/08/04 00:17:47;;;;;;;2.03;1.60;;;;;;;14.02;100.00;95705.03;5052756;28;20410;-76
2021/08/04 00:20:13;;;;;;;1.92;1.50;;;;;;;14.03;100.00;95704.06;5052669;28;20416;-76
2021/08/04 00:22:39;;;;;;;2.00;1.52;;;;;;;13.96;100.00;95704.66;5052513;28;20413;-76
2021/08/04 00:25:05;;;;;;;2.58;1.58;;;;;;;13.85;100.00;95707.25;5052549;28;20421;-76
2021/08/04 00:27:31;;;;;;;3.03;1.57;;;;;;;13.96;100.00;95715.06;5052692;28;20413;-76
2021/08/04 00:29:58;;;;;;;3.37;1.57;;;;;;;13.97;100.00;95717.56;5052475;28;21007;-76
2021/08/04 00:32:24;;;;;;;2.40;1.50;;;;;;;14.04;100.00;95713.53;5052381;28;20450;-76
2021/08/04 00:34:50;;;;;;;1.75;1.42;;;;;;;13.99;100.00;95712.25;5052273;28;20447;-76
2021/08/04 00:37:15;;;;;;;2.47;1.63;;;;;;;14.05;100.00;95706.53;5052016;28;20460;-76
2021/08/04 00:39:41;;;;;;;2.90;1.47;;;;;;;14.06;100.00;95710.81;5052376;28;20437;-76
2021/08/04 00:42:07;;;;;;;2.63;1.50;;;;;;;14.05;100.00;95709.16;5052303;28;20421;-76
2021/08/04 00:44:33;;;;;;;3.05;1.50;;;;;;;14.03;100.00;95713.66;5051000;28;20964;-76
2021/08/04 00:47:00;;;;;;;1.88;1.40;;;;;;;14.08;100.00;95703.72;5051887;28;20413;-75
2021/08/04 00:49:26;;;;;;;2.13;1.50;;;;;;;14.11;100.00;95706.06;5052203;28;20425;-76
2021/08/04 00:51:51;;;;;;;2.00;1.67;;;;;;;14.02;100.00;95701.59;5051997;28;20413;-75
2021/08/04 00:54:17;;;;;;;4.00;1.40;;;;;;;13.94;100.00;95701.34;5051963;28;20440;-75
2021/08/04 00:56:42;;;;;;;3.03;1.60;;;;;;;14.02;100.00;95706.81;5051731;28;20409;-76
2021/08/04 00:59:11;;;;;;;1.93;1.50;;;;;;;14.02;100.00;95699.81;5051902;28;20489;-75
2021/08/04 01:01:45;;;;;;;2.08;1.40;;;;;;;14.04;100.00;95692.69;5050650;28;20425;-75
2021/08/04 01:04:18;;;;;;;2.00;1.40;;;;;;;14.06;100.00;95695.19;5051969;28;21145;-76
2021/08/04 01:06:47;;;;;;;1.65;1.45;;;;;;;14.08;100.00;95685.47;5051596;28;20453;-75
2021/08/04 01:09:17;;;;;;;1.42;1.30;;;;;;;14.06;100.00;95676.97;5052538;28;20468;-75
2021/08/04 01:11:49;;;;;;;1.80;1.20;;;;;;;14.10;100.00;95680.16;5053544;28;20425;-75
2021/08/04 01:14:20;;;;;;;2.05;1.23;;;;;;;14.08;100.00;95677.66;5052708;28;21143;-75
2021/08/04 01:16:48;;;;;;;1.70;1.40;;;;;;;14.12;100.00;95681.69;5050298;28;20421;-76
2021/08/04 01:19:27;;;;;;;4.47;1.63;;;;;;;14.10;100.00;95683.59;5051694;28;20413;-75
2021/08/04 01:22:00;;;;;;;1.75;1.35;;;;;;;14.13;100.00;95688.56;5050402;28;20837;-75
2021/08/04 01:24:28;;;;;;;3.17;1.48;;;;;;;14.14;100.00;95681.56;5051540;28;20485;-76
2021/08/04 01:26:56;;;;;;;4.22;1.55;;;;;;;14.15;100.00;95691.03;5050998;28;20907;-75
2021/08/04 01:29:24;;;;;;;2.40;1.58;;;;;;;13.92;100.00;95692.84;5051265;28;20451;-75
2021/08/04 01:31:54;;;;;;;1.98;1.30;;;;;;;13.93;100.00;95700.50;5050046;28;21045;-75
2021/08/04 01:34:20;;;;;;;1.50;1.30;;;;;;;13.93;100.00;95702.28;5050964;28;20421;-76
2021/08/04 01:36:46;;;;;;;2.25;1.50;;;;;;;13.71;100.00;95698.72;5050652;28;20599;-76
2021/08/04 01:39:14;;;;;;;1.63;1.42;;;;;;;13.88;100.00;95691.41;5051367;28;20409;-76
2021/08/04 01:41:41;;;;;;;3.63;1.80;;;;;;;13.77;100.00;95693.06;5050947;28;20879;-76
2021/08/04 01:44:09;;;;;;;2.92;1.60;;;;;;;13.87;100.00;95684.53;5051112;28;20895;-76
2021/08/04 01:46:36;;;;;;;2.05;1.30;;;;;;;13.92;100.00;95685.84;5049261;28;20421;-76
2021/08/04 01:49:03;;;;;;;1.80;1.48;;;;;;;13.87;100.00;95687.13;5050929;28;20409;-76
2021/08/04 01:51:30;;;;;;;1.88;1.30;;;;;;;13.80;100.00;95685.03;5049605;28;20425;-76
2021/08/04 01:53:56;;;;;;;2.33;1.50;;;;;;;13.80;100.00;95685.03;5050818;28;20504;-76
2021/08/04 01:56:22;;;;;;;3.43;1.50;;;;;;;13.78;100.00;95681.69;5050353;28;20478;-76
2021/08/04 01:58:47;;;;;;;1.60;1.17;;;;;;;13.79;100.00;95685.97;5050874;28;20425;-75
2021/08/04 02:01:14;;;;;;;1.90;1.30;;;;;;;13.80;100.00;95681.59;5050857;28;20445;-76
2021/08/04 02:03:39;;;;;;;3.83;1.42;;;;;;;13.74;100.00;95689.88;5050498;28;20420;-75
2021/08/04 02:06:11;;;;;;;3.00;1.60;;;;;;;13.67;100.00;95688.69;5050387;28;20493;-75
2021/08/04 02:08:41;;;;;;;2.45;1.63;;;;;;;13.60;100.00;95687.47;5050807;28;20421;-76
2021/08/04 02:11:13;;;;;;;3.63;1.80;;;;;;;13.56;100.00;95686.88;5049477;28;20421;-76
2021/08/04 02:13:45;;;;;;;6.00;1.80;;;;;;;13.55;100.00;95683.47;5050757;28;20421;-76
2021/08/04 02:16:21;;;;;;;1.83;1.20;;;;;;;13.71;100.00;95690.09;5050921;28;20417;-75
2021/08/04 02:18:54;;;;;;;2.15;1.60;;;;;;;13.69;100.00;95684.19;5050242;28;20949;-75
2021/08/04 02:21:23;;;;;;;1.83;1.48;;;;;;;13.58;100.00;95692.81;5051057;28;20883;-75
2021/08/04 02:23:50;;;;;;;2.60;1.60;;;;;;;13.56;100.00;95677.31;5049422;28;20413;-75
2021/08/04 02:26:20;;;;;;;3.03;1.77;;;;;;;13.49;100.00;95675.28;5050170;28;20445;-75
2021/08/04 02:28:50;;;;;;;3.60;1.60;;;;;;;13.45;100.00;95668.66;5049348;28;20420;-75
2021/08/04 02:31:18;;;;;;;2.10;1.50;;;;;;;13.61;100.00;95670.91;5050514;28;20459;-75
2021/08/04 02:33:44;;;;;;;2.60;1.73;;;;;;;13.56;100.00;95660.88;5050346;28;20417;-75
2021/08/04 02:36:11;;;;;;;2.10;1.40;;;;;;;13.42;100.00;95663.69;5049967;28;20432;-75
2021/08/04 02:38:37;;;;;;;1.50;1.40;;;;;;;13.56;100.00;95658.25;5050547;28;20782;-75
2021/08/04 02:41:03;;;;;;;2.57;1.63;;;;;;;13.42;100.00;95661.94;5050314;28;20417;-75
2021/08/04 02:43:29;;;;;;;3.72;1.75;;;;;;;13.31;100.00;95657.53;5050467;28;20421;-75
2021/08/04 02:45:55;;;;;;;2.72;1.70;;;;;;;13.43;100.00;95660.97;5050091;28;20587;-75
2021/08/04 02:48:23;;;;;;;1.80;1.52;;;;;;;13.28;100.00;95660.38;5050503;28;20413;-75
2021/08/04 02:50:52;;;;;;;2.70;1.65;;;;;;;13.41;100.00;95654.22;5050384;28;20413;-75
2021/08/04 02:53:19;;;;;;;3.80;1.83;;;;;;;13.35;100.00;95657.28;5050282;28;20428;-75
2021/08/04 02:55:49;;;;;;;2.20;1.60;;;;;;;13.41;100.00;95657.66;5050041;28;20447;-75
2021/08/04 02:58:14;;;;;;;2.35;1.50;;;;;;;13.51;100.00;95657.78;5050228;28;20449;-75
2021/08/04 03:00:40;;;;;;;2.72;1.70;;;;;;;13.50;100.00;95654.38;5050340;28;20448;-75
2021/08/04 03:03:06;;;;;;;3.97;1.52;;;;;;;13.54;100.00;95649.75;5050450;28;20475;-75
2021/08/04 03:05:32;;;;;;;3.22;1.63;;;;;;;13.56;100.00;95653.06;5049966;28;20415;-75
2021/08/04 03:07:58;;;;;;;1.60;1.42;;;;;;;13.64;100.00;95655.06;5050310;28;20413;-75
2021/08/04 03:10:23;;;;;;;1.92;1.33;;;;;;;13.60;100.00;95648.44;5050190;28;20413;-75
2021/08/04 03:12:49;;;;;;;4.05;1.55;;;;;;;13.62;100.00;95647.41;5050145;28;20895;-75
2021/08/04 03:15:14;;;;;;;3.50;1.40;;;;;;;13.62;100.00;95650.00;5048477;28;20414;-75
2021/08/04 03:17:40;;;;;;;1.93;1.73;;;;;;;13.56;99.77;95656.50;5050084;28;20413;-75
2021/08/04 03:20:07;;;;;;;3.23;1.83;;;;;;;13.56;100.00;95655.66;5050208;28;20409;-75
2021/08/04 03:22:33;;;;;;;3.20;1.90;;;;;;;13.63;100.00;95656.84;5050103;28;20814;-75
2021/08/04 03:24:59;;;;;;;2.78;1.60;;;;;;;13.64;100.00;95655.06;5050112;28;20441;-75
2021/08/04 03:27:24;;;;;;;3.33;1.73;;;;;;;13.67;99.66;95652.25;5049838;28;20930;-75
2021/08/04 03:29:50;;;;;;;2.13;1.73;;;;;;;13.66;99.48;95653.19;5050977;28;20424;-75
2021/08/04 03:32:15;;;;;;;2.70;1.55;;;;;;;13.73;99.63;95654.38;5053608;28;20968;-75
2021/08/04 03:34:41;;;;;;;2.08;1.35;;;;;;;13.73;100.00;95655.19;5053363;28;20910;-75
2021/08/04 03:37:06;;;;;;;3.00;1.67;;;;;;;13.74;100.00;95654.25;5053182;28;20413;-75
2021/08/04 03:39:33;;;;;;;3.67;1.60;;;;;;;13.62;100.00;95655.19;5053548;28;20455;-75
2021/08/04 03:41:58;;;;;;;2.60;1.40;;;;;;;13.57;100.00;95657.31;5053499;28;20516;-75
2021/08/04 03:44:24;;;;;;;1.80;1.50;;;;;;;13.51;100.00;95652.59;5053466;28;20860;-75
2021/08/04 03:46:49;;;;;;;6.73;1.93;;;;;;;13.43;100.00;95650.59;5051696;28;20417;-75
2021/08/04 03:49:16;;;;;;;2.17;1.80;;;;;;;13.50;100.00;95646.56;5053529;28;20452;-75
2021/08/04 03:51:42;;;;;;;4.03;1.90;;;;;;;13.51;100.00;95650.00;5053435;28;20902;-75
2021/08/04 03:54:07;;;;;;;2.55;1.55;;;;;;;13.54;100.00;95645.38;5053372;28;20425;-75
2021/08/04 03:56:34;;;;;;;3.83;1.85;;;;;;;13.53;100.00;95651.53;5052946;28;21199;-74
2021/08/04 03:59:00;;;;;;;1.98;1.60;;;;;;;13.50;100.00;95649.16;5053037;28;20417;-75
2021/08/04 04:01:26;;;;;;;2.00;1.63;;;;;;;13.56;100.00;95650.47;5051799;28;20942;-75
2021/08/04 04:03:51;;;;;;;2.37;1.60;;;;;;;13.60;100.00;95649.28;5053111;28;20410;-75
2021/08/04 04:06:17;;;;;;;3.50;1.63;;;;;;;13.58;100.00;95647.75;5052438;28;20421;-75
2021/08/04 04:08:43;;;;;;;2.05;1.55;;;;;;;13.59;100.00;95649.41;5055299;28;20543;-75
2021/08/04 04:11:09;;;;;;;2.25;1.75;;;;;;;13.58;100.00;95658.16;5055103;28;20421;-75
2021/08/04 04:13:36;;;;;;;3.42;1.77;;;;;;;13.63;100.00;95658.63;5054686;28;20417;-75
2021/08/04 04:16:01;;;;;;;2.58;1.98;;;;;;;13.63;100.00;95663.84;5052815;28;20414;-75
2021/08/04 04:18:27;;;;;;;2.90;1.80;;;;;;;13.56;100.00;95663.47;5053140;28;20508;-75
2021/08/04 04:20:52;;;;;;;3.30;1.73;;;;;;;13.40;100.00;95663.00;5052847;28;20467;-75
2021/08/04 04:23:18;;;;;;;2.05;1.85;;;;;;;13.44;100.00;95654.81;5052662;28;20417;-74
2021/08/04 04:25:43;;;;;;;3.23;1.80;;;;;;;13.44;100.00;95654.81;5052477;28;20421;-75
2021/08/04 04:28:09;;;;;;;2.97;1.87;;;;;;;13.46;100.00;95657.31;5051551;28;20425;-75
2021/08/04 04:30:36;;;;;;;3.40;1.60;;;;;;;13.39;100.00;95659.56;5052477;28;20475;-75
2021/08/04 04:33:01;;;;;;;2.75;2.22;;;;;;;13.29;100.00;95659.41;5052316;28;20512;-75
2021/08/04 04:35:27;;;;;;;3.07;2.17;;;;;;;13.36;100.00;95661.56;5050670;28;20493;-75
2021/08/04 04:37:53;;;;;;;3.03;1.73;;;;;;;13.41;100.00;95664.63;5051209;28;20919;-75
2021/08/04 04:40:18;;;;;;;2.63;1.50;;;;;;;13.43;100.00;95660.16;5051937;28;20413;-75
2021/08/04 04:42:43;;;;;;;4.23;2.03;;;;;;;13.39;100.00;95667.38;5043958;28;20422;-75
2021/08/04 04:45:10;;;;;;;3.03;2.00;;;;;;;13.44;100.00;95661.81;5030889;28;21012;-75
2021/08/04 04:47:36;;;;;;;2.65;1.75;;;;;;;13.49;100.00;95662.28;5031949;28;20506;-75
2021/08/04 04:50:03;;;;;;;3.70;1.80;;;;;;;13.53;100.00;95672.34;5032275;28;20484;-74
2021/08/04 04:52:28;;;;;;;6.10;2.30;;;;;;;13.54;100.00;95673.19;5032079;28;20446;-75
2021/08/04 04:54:53;;;;;;;3.13;1.90;;;;;;;13.52;100.00;95670.69;5031898;28;20458;-75
2021/08/04 04:57:19;;;;;;;2.07;1.50;;;;;;;13.54;100.00;95681.00;5031956;28;20845;-75
2021/08/04 04:59:44;;;;;;;2.20;1.60;;;;;;;13.61;100.00;95678.72;5032258;28;20426;-75
2021/08/04 05:02:10;;;;;;;2.93;1.63;;;;;;;13.55;100.00;95682.63;5030718;28;20480;-74
2021/08/04 05:04:37;;;;;;;2.53;1.90;;;;;;;13.42;100.00;95676.69;5030895;28;20411;-75
2021/08/04 05:07:02;;;;;;;3.08;2.00;;;;;;;13.31;100.00;95672.28;5030540;28;20746;-75
2021/08/04 05:09:28;;;;;;;2.72;2.05;;;;;;;13.24;100.00;95679.75;5032053;28;20438;-76
2021/08/04 05:11:54;;;;;;;2.53;1.70;;;;;;;13.31;100.00;95680.09;5051901;28;20417;-76
2021/08/04 05:14:19;;;;;;;4.80;1.80;;;;;;;13.43;100.00;95683.56;5050273;28;21585;-76
2021/08/04 05:16:45;;;;;;;4.10;2.13;;;;;;;13.51;100.00;95679.44;5050211;28;20413;-75
2021/08/04 05:19:10;;;;;;;2.58;1.58;;;;;;;13.59;100.00;95680.63;5051605;28;20412;-76
2021/08/04 05:21:37;;;;;;;3.20;1.87;;;;;;;13.49;100.00;95686.50;5050312;28;20417;-77
2021/08/04 05:24:03;;;;;;;6.07;2.10;;;;;;;13.39;100.00;95679.56;5043511;28;20439;-75
2021/08/04 05:26:28;;;;;;;3.05;2.00;;;;;;;13.49;100.00;95683.09;5048260;28;20417;-76
2021/08/04 05:28:56;;;;;;;2.83;1.97;;;;;;;13.47;100.00;95682.41;5051463;28;20409;-75
2021/08/04 05:31:21;;;;;;;4.82;2.05;;;;;;;13.39;100.00;95682.97;5050235;28;20521;-75
2021/08/04 05:33:46;;;;;;;4.20;2.30;;;;;;;13.18;100.00;95682.78;5050208;28;20982;-76
2021/08/04 05:36:12;;;;;;;3.80;1.90;;;;;;;13.15;100.00;95680.38;5050893;28;20417;-75
2021/08/04 05:38:39;;;;;;;3.75;1.90;;;;;;;13.22;100.00;95686.78;5051319;28;20420;-75
2021/08/04 05:41:04;;;;;;;2.90;2.03;;;;;;;13.22;100.00;95678.16;5050007;28;20433;-75
2021/08/04 05:43:30;;;;;;;3.83;2.07;;;;;;;13.28;100.00;95681.19;5049927;28;20471;-75
2021/08/04 05:45:56;;;;;;;3.17;1.92;;;;;;;13.42;100.00;95676.69;5050756;28;20405;-75
2021/08/04 05:48:21;;;;;;;6.55;2.08;;;;;;;13.45;100.00;95681.66;5051340;28;20467;-76
2021/08/04 05:50:47;;;;;;;3.43;2.07;;;;;;;13.42;100.00;95684.50;5050993;28;20414;-76
2021/08/04 05:53:12;;;;;;;2.83;2.03;;;;;;;13.54;100.00;95679.22;5050121;28;20830;-75
2021/08/04 05:55:39;;;;;;;3.37;1.93;;;;;;;13.54;100.00;95673.19;5050717;28;20444;-75
2021/08/04 05:58:04;;;;;;;2.60;2.00;;;;;;;13.68;100.00;95672.97;5050921;28;20409;-75
2021/08/04 06:00:30;;;;;;;3.90;1.83;;;;;;;14.14;100.00;95674.59;5050977;28;20471;-76
2021/08/04 06:02:55;;;;;;;2.53;1.88;;;;;;;14.33;100.00;95673.13;5049553;28;20417;-75
2021/08/04 06:05:21;;;;;;;2.30;1.75;;;;;;;14.20;100.00;95671.50;5049498;28;20428;-76
2021/08/04 06:07:46;;;;;;;2.78;1.60;;;;;;;14.26;100.00;95671.00;5050865;28;20752;-75
2021/08/04 06:10:12;;;;;;;2.23;1.77;;;;;;;14.26;96.99;95665.81;5050848;28;20409;-75
2021/08/04 06:12:39;;;;;;;3.70;2.23;;;;;;;14.36;96.12;95667.69;5049450;28;20417;-76
2021/08/04 06:15:05;;;;;;;2.55;1.90;;;;;;;14.47;96.61;95671.09;5050562;28;20429;-75
2021/08/04 06:17:30;;;;;;;1.90;1.70;;;;;;;14.42;94.36;95670.63;5049741;28;20417;-76
2021/08/04 06:19:56;;;;;;;5.10;2.00;;;;;;;14.63;95.94;95678.53;5050735;28;20463;-76
2021/08/04 06:22:22;;;;;;;5.85;2.03;;;;;;;14.51;95.53;95679.53;5050680;28;20412;-76
2021/08/04 06:24:47;;;;;;;3.33;2.42;;;;;;;14.62;96.12;95683.88;5050677;28;20405;-77
2021/08/04 06:27:13;;;;;;;2.97;2.13;;;;;;;14.58;94.56;95687.69;5050383;28;20405;-75
2021/08/04 06:29:40;;;;;;;3.20;2.00;;;;;;;14.52;94.65;95686.38;5050712;28;20409;-76
2021/08/04 06:32:06;;;;;;;2.83;2.00;;;;;;;14.56;92.89;95687.78;5050613;28;20409;-77
2021/08/04 06:34:32;;;;;;;2.50;1.98;;;;;;;14.54;92.80;95688.88;5050418;28;20512;-76
2021/08/04 06:36:57;;;;;;;2.40;1.93;;;;;;;14.81;92.58;95686.66;5050056;28;20496;-76
2021/08/04 06:39:23;;;;;;;3.67;2.07;;;;;;;14.96;90.10;95692.41;5049341;28;20653;-76
2021/08/04 06:41:48;;;;;;;3.50;2.00;;;;;;;15.14;88.61;95695.31;5049290;28;20931;-76
2021/08/04 06:44:14;;;;;;;2.58;2.00;;;;;;;15.08;89.16;95693.19;5049328;28;20972;-74
2021/08/04 06:46:40;;;;;;;3.20;1.87;;;;;;;14.92;88.19;95689.22;5049982;28;20413;-75
2021/08/04 06:49:07;;;;;;;5.30;1.95;;;;;;;15.04;87.89;95695.22;5049156;28;20456;-75
2021/08/04 06:51:33;;;;;;;3.42;2.00;;;;;;;14.83;86.60;95696.94;5050430;28;20424;-76
2021/08/04 06:53:59;;;;;;;4.10;1.83;;;;;;;14.77;87.67;95693.06;5048897;28;20504;-76
2021/08/04 06:56:25;;;;;;;3.13;1.80;;;;;;;14.54;86.86;95699.31;5050041;28;20409;-75
2021/08/04 06:58:50;;;;;;;1.70;1.60;;;;;;;14.58;88.57;95693.72;5045051;28;20922;-74
2021/08/04 07:01:16;;;;;;;5.50;1.70;;;;;;;14.76;88.31;95700.06;5029068;28;20447;-75
2021/08/04 07:03:43;;;;;;;5.90;1.87;;;;;;;15.07;88.67;95700.19;5031008;28;20411;-76
2021/08/04 07:06:09;;;;;;;2.80;1.92;;;;;;;15.07;90.04;95708.00;5034521;28;20414;-75
2021/08/04 07:08:35;;;;;;;2.28;1.80;;;;;;;15.12;89.99;95707.63;5039234;28;20824;-75
2021/08/04 07:11:01;;;;;;;3.57;2.00;;;;;;;15.32;88.53;95711.22;5047279;28;20424;-75
2021/08/04 07:13:26;;;;;;;5.10;2.20;;;;;;;15.03;87.52;95714.44;5056571;28;20571;-76
2021/08/04 07:15:52;;;;;;;2.10;1.90;;;;;;;15.21;88.26;95712.94;5054420;28;20425;-76
2021/08/04 07:18:17;;;;;;;3.72;1.75;;;;;;;15.18;85.72;95707.97;5054176;28;20757;-75
2021/08/04 07:20:44;;;;;;;2.50;1.60;;;;;;;15.25;85.07;95709.13;5054011;28;20960;-76
2021/08/04 07:23:09;;;;;;;2.60;2.00;;;;;;;15.31;85.47;95710.38;5053841;28;20835;-76
2021/08/04 07:25:35;;;;;;;2.20;2.00;;;;;;;15.30;85.55;95707.91;5053655;28;20504;-76
2021/08/04 07:28:01;;;;;;;2.80;2.20;;;;;;;15.94;85.11;95706.00;5053907;28;20432;-76
2021/08/04 07:30:26;;;;;;;2.10;1.90;;;;;;;15.83;83.41;95703.44;5054015;28;20526;-76
2021/08/04 07:32:52;;;;;;;2.87;1.90;;;;;;;16.10;83.46;95708.09;5053553;28;20471;-75
2021/08/04 07:35:17;;;;;;;2.30;1.90;;;;;;;16.18;80.92;95703.03;5054445;28;20425;-76
2021/08/04 07:37:45;;;;;;;2.42;1.88;;;;;;;16.08;81.33;95710.00;5053995;28;20973;-76
2021/08/04 07:40:13;;;;;;;4.05;1.77;;;;;;;15.98;82.35;95714.34;5052094;28;20449;-76
2021/08/04 07:42:39;;;;;;;2.72;1.85;;;;;;;15.95;83.03;95715.47;5053459;28;20774;-75
2021/08/04 07:45:05;;;;;;;5.45;1.92;;;;;;;16.14;80.32;95716.50;5053536;28;20409;-76
2021/08/04 07:47:31;;;;;;;2.20;1.75;;;;;;;15.84;79.64;95702.50;5052681;28;20427;-76
2021/08/04 07:49:56;;;;;;;2.53;1.90;;;;;;;16.10;83.08;95699.44;5052422;28;20496;-76
2021/08/04 07:52:22;;;;;;;2.10;1.90;;;;;;;16.57;78.90;95697.91;5053228;28;20413;-78
2021/08/04 07:54:49;;;;;;;2.30;1.50;;;;;;;16.69;78.72;95688.19;5052096;28;20484;-76
2021/08/04 07:57:14;;;;;;;4.10;1.90;;;;;;;17.04;80.33;95687.66;5053753;28;20413;-75
2021/08/04 07:59:40;;;;;;;3.10;1.97;;;;;;;17.15;79.78;95682.28;5053463;28;20488;-75
2021/08/04 08:02:06;;;;;;;2.97;1.85;;;;;;;17.09;78.38;95682.88;5052985;28;20405;-77
2021/08/04 08:04:32;;;;;;;2.50;2.00;;;;;;;16.86;76.26;95677.06;5052984;28;20420;-78
2021/08/04 08:06:57;;;;;;;2.37;1.77;;;;;;;17.26;75.70;95681.31;5036032;28;20522;-80
2021/08/04 08:09:24;;;;;;;2.53;1.87;;;;;;;17.30;77.92;95689.72;5035497;28;20433;-78
2021/08/04 08:11:51;;;;;;;3.23;1.70;;;;;;;16.94;80.04;95689.44;5050743;28;20941;-78
2021/08/04 08:14:17;;;;;;;3.88;2.20;;;;;;;16.95;80.60;95688.50;5057634;28;20421;-78
2021/08/04 08:16:42;;;;;;;2.67;2.03;;;;;;;16.96;77.67;95698.00;5053011;28;20810;-76
2021/08/04 08:19:08;;;;;;;5.15;2.00;;;;;;;16.86;76.01;95700.59;5052995;28;20421;-76
2021/08/04 08:21:34;;;;;;;2.33;1.53;;;;;;;16.89;76.12;95694.28;5053071;28;20459;-76
2021/08/04 08:23:59;;;;;;;2.63;1.90;;;;;;;17.03;75.25;95695.66;5052564;28;20413;-76
2021/08/04 08:26:25;;;;;;;2.17;1.97;;;;;;;17.18;76.06;95704.75;5051359;28;20471;-75
2021/08/04 08:28:52;;;;;;;2.10;1.90;;;;;;;17.15;77.90;95705.84;5052781;28;20518;-75
2021/08/04 08:31:18;;;;;;;2.95;1.85;;;;;;;16.72;76.52;95703.56;5051162;28;20449;-75
2021/08/04 08:33:43;;;;;;;2.72;2.05;;;;;;;16.08;79.17;95707.41;5052694;28;20504;-75
2021/08/04 08:36:09;;;;;;;2.05;1.80;;;;;;;15.65;81.26;95707.59;5052098;28;20417;-75
2021/08/04 08:38:34;;;;;;;2.87;2.10;;;;;;;15.54;81.96;95712.88;5052623;28;20460;-75
2021/08/04 08:41:00;;;;;;;2.10;1.80;;;;;;;15.40;81.68;95701.81;5051095;28;20496;-74
2021/08/04 08:43:26;;;;;;;8.23;2.37;;;;;;;15.63;82.60;95705.09;5051166;28;20505;-77
2021/08/04 08:45:54;;;;;;;2.07;1.87;;;;;;;15.92;84.67;95701.84;5051993;28;20512;-76
2021/08/04 08:48:19;;;;;;;2.97;2.08;;;;;;;15.86;83.52;95700.56;5052345;28;20423;-75
2021/08/04 08:50:48;;;;;;;2.40;2.00;;;;;;;15.79;84.68;95693.38;5051961;28;20506;-76
2021/08/04 08:53:13;;;;;;;3.15;2.05;;;;;;;15.63;85.83;95694.66;5051915;28;20456;-75
2021/08/04 08:55:39;;;;;;;3.95;1.90;;;;;;;15.64;86.17;95685.84;5051984;28;20417;-76
2021/08/04 08:58:05;;;;;;;3.13;1.90;;;;;;;15.64;84.81;95690.25;5052324;28;20413;-75
2021/08/04 09:00:31;;;;;;;2.00;1.80;;;;;;;15.68;84.12;95689.06;5052126;28;20496;-76
2021/08/04 09:02:58;;;;;;;3.00;1.90;;;;;;;15.66;84.21;95686.59;5052152;28;20778;-74
2021/08/04 09:05:23;;;;;;;2.47;1.80;;;;;;;15.72;85.00;95686.09;5051682;28;20541;-75
2021/08/04 09:07:50;;;;;;;2.23;1.77;;;;;;;15.82;84.15;95680.91;5051944;28;20508;-75
2021/08/04 09:10:20;;;;;;;2.35;1.98;;;;;;;15.84;81.81;95688.63;5051810;28;20412;-77
2021/08/04 09:12:46;;;;;;;3.35;2.05;;;;;;;15.81;82.64;95673.19;5051958;28;20972;-76
2021/08/04 09:15:25;;;;;;;2.47;2.03;;;;;;;15.78;81.89;95671.66;5049953;28;20516;-76
2021/08/04 09:18:03;;;;;;;3.45;2.20;;;;;;;15.72;82.49;95675.66;5051787;28;20835;-75
2021/08/04 09:20:31;;;;;;;2.22;1.67;;;;;;;15.81;81.72;95671.41;5051018;28;20837;-76
2021/08/04 09:23:00;;;;;;;2.07;1.87;;;;;;;15.74;81.59;95665.06;5051473;28;20417;-75
2021/08/04 09:25:25;;;;;;;3.90;2.00;;;;;;;15.97;83.65;95673.53;5051298;28;20906;-76
2021/08/04 09:27:53;;;;;;;2.13;1.65;;;;;;;16.65;84.86;95658.88;5050782;28;20467;-77
2021/08/04 09:30:25;;;;;;;4.97;2.03;;;;;;;16.87;83.46;95657.81;5051667;28;20850;-77
2021/08/04 09:32:51;;;;;;;3.42;1.77;;;;;;;16.85;79.96;95662.34;5051538;28;20418;-76
2021/08/04 09:35:20;;;;;;;1.83;1.65;;;;;;;16.91;77.58;95661.78;5050103;28;20478;-76
2021/08/04 09:37:47;;;;;;;3.50;2.00;;;;;;;16.90;77.78;95664.53;5051266;28;20402;-77
2021/08/04 09:40:14;;;;;;;3.75;1.77;;;;;;;16.78;76.87;95661.22;5051148;28;20425;-79
2021/08/04 09:42:43;;;;;;;3.70;2.00;;;;;;;16.81;77.30;95654.91;5054550;28;20414;-75
2021/08/04 09:45:09;;;;;;;2.90;1.85;;;;;;;16.80;78.77;95653.25;5051112;28;20444;-76
2021/08/04 09:47:35;;;;;;;3.05;1.80;;;;;;;17.62;78.72;95657.97;5049735;28;20417;-76
2021/08/04 09:50:03;;;;;;;2.20;1.80;;;;;;;17.81;75.34;95649.25;5051067;28;20412;-76
2021/08/04 09:52:30;;;;;;;2.53;2.03;;;;;;;18.23;78.15;95644.38;5051202;28;20405;-75
2021/08/04 09:55:10;;;;;;;1.88;1.60;;;;;;;18.23;72.69;95647.00;5049767;28;20417;-76
2021/08/04 09:57:38;;;;;;;1.70;1.55;;;;;;;17.86;68.81;95647.03;5049907;28;20437;-77
2021/08/04 10:00:07;;;;;;;3.75;1.95;;;;;;;17.54;72.15;95647.38;5051026;28;20421;-76
2021/08/04 10:02:32;;;;;;;1.98;1.70;;;;;;;17.70;77.00;95657.25;5051527;28;20417;-74
2021/08/04 10:05:17;;;;;;;2.60;1.80;;;;;;;17.76;72.39;95654.09;5050598;28;20416;-75
2021/08/04 10:08:00;;;;;;;2.05;1.50;;;;;;;17.99;73.48;95646.72;5050992;28;20431;-76
2021/08/04 10:10:26;;;;;;;2.35;1.83;;;;;;;18.42;74.24;95646.06;5050268;28;20458;-75
2021/08/04 10:12:53;;;;;;;3.00;1.83;;;;;;;18.51;70.42;95642.56;5051993;28;20437;-75
2021/08/04 10:15:19;;;;;;;3.40;1.88;;;;;;;18.58;72.81;95627.88;5052217;28;20471;-75
2021/08/04 10:17:45;;;;;;;2.67;1.77;;;;;;;18.63;71.73;95623.00;5050521;28;20895;-75
2021/08/04 10:20:10;;;;;;;2.03;1.67;;;;;;;18.30;73.25;95618.41;5050730;28;20507;-75
2021/08/04 10:22:37;;;;;;;2.90;2.00;;;;;;;18.57;72.64;95620.97;5049228;28;20413;-75
2021/08/04 10:25:05;;;;;;;3.92;1.95;;;;;;;18.11;72.08;95617.53;5050623;28;20496;-75
2021/08/04 10:27:31;;;;;;;3.10;2.00;;;;;;;18.32;72.54;95621.72;5050398;28;20421;-75
2021/08/04 10:29:56;;;;;;;4.43;1.95;;;;;;;18.31;73.97;95617.41;5050626;28;20429;-75
2021/08/04 10:32:22;;;;;;;3.47;2.10;;;;;;;18.42;69.98;95617.22;5050502;28;20412;-75
2021/08/04 10:34:49;;;;;;;2.37;1.70;;;;;;;18.38;73.93;95613.22;5050564;28;20425;-75
2021/08/04 10:37:15;;;;;;;1.90;1.60;;;;;;;18.65;73.02;95612.38;5046863;28;20427;-75
2021/08/04 10:39:41;;;;;;;3.28;1.80;;;;;;;18.72;73.74;95612.59;5052732;28;20413;-74
2021/08/04 10:42:08;;;;;;;6.57;2.10;;;;;;;18.83;69.86;95607.13;5054284;28;20778;-75
2021/08/04 10:44:34;;;;;;;2.70;1.60;;;;;;;19.12;77.17;95598.19;5054619;28;20416;-75
2021/08/04 10:47:02;;;;;;;1.95;1.70;;;;;;;19.34;69.45;95606.38;5053188;28;20504;-75
2021/08/04 10:49:34;;;;;;;5.15;1.80;;;;;;;19.49;65.08;95609.25;5054200;28;20429;-74
2021/08/04 10:52:11;;;;;;;5.22;2.08;;;;;;;19.60;68.18;95613.44;5053014;28;20425;-75
2021/08/04 10:54:57;;;;;;;3.35;1.92;;;;;;;19.46;71.38;95606.13;5053762;28;20509;-74
2021/08/04 10:57:23;;;;;;;3.25;1.98;;;;;;;19.24;66.52;95604.81;5053583;28;20845;-75
2021/08/04 10:59:49;;;;;;;2.22;1.70;;;;;;;19.39;67.36;95597.22;5054054;28;20444;-75
2021/08/04 11:02:31;;;;;;;2.90;1.92;;;;;;;19.59;65.97;95602.09;5053936;28;20420;-75
2021/08/04 11:04:57;;;;;;;2.60;1.80;;;;;;;19.65;65.94;95598.03;5046655;28;20502;-75
2021/08/04 11:07:24;;;;;;;2.42;1.55;;;;;;;19.88;63.46;95595.72;5051450;28;20745;-75
2021/08/04 11:10:04;;;;;;;2.00;1.80;;;;;;;19.88;66.12;95598.34;5052619;28;20521;-75
2021/08/04 11:12:43;;;;;;;6.00;1.55;;;;;;;19.80;63.65;95598.28;5054433;28;20794;-78
2021/08/04 11:15:19;;;;;;;2.97;1.70;;;;;;;19.81;66.12;95592.06;5053833;28;20429;-75
2021/08/04 11:17:57;;;;;;;2.90;1.83;;;;;;;19.29;65.34;95589.44;5053720;28;20963;-75
2021/08/04 11:20:23;;;;;;;3.00;1.75;;;;;;;19.25;66.78;95583.69;5053873;28;20417;-76
2021/08/04 11:22:50;;;;;;;5.05;2.00;;;;;;;19.13;66.71;95584.88;5053461;28;20427;-75
2021/08/04 11:25:31;;;;;;;2.17;1.30;;;;;;;19.19;67.08;95579.03;5053400;28;20413;-76
2021/08/04 11:28:18;;;;;;;2.63;1.60;;;;;;;19.21;64.50;95576.28;5053585;28;20417;-76